Huvudsida
METAR-TAF:

METAR-TAF

Flygplatser :

Tunis, Tunisien

latitud: 36-50N, longitud: 010-14E, höjd: 3 m

Aktuellt väderrapport

Denna rapport gjordes för 13 minuter sedan, klockan 08:00 UTC
Vind 10 kt från syd/sydost
Temperatur 29°C
Fuktighet 31%
Tryck 1015 hPa
Sikt 10 km eller mer
Få moln på en höjd av 2600 ft

METAR: DTTA 270800Z 16010KT 9999 FEW026 29/10 Q1015 NOSIG

Tid: 09:13 (08:13 UTC)

Väderprognos

Denna rapport gjordes för 2 timmar och 16 minuter sedan, klockan 05:57 UTC
Prognos gäller från 27 kl. 06 UTC till 28 kl. 06 UTC
Vind 8 kt från sydost
Sikt 10 km eller mer
Få moln på en höjd av 2600 ft

TAF: DTTA 270557Z 2706/2806 14008KT 9999 FEW026

Aktuella väderrapporter och prognoser från 4000 flygplatser (METAR- och TAF-rapporter).

De tillgängliga stationerna syns som gula och röda prickar på kartan.

För musen över prickarna för att se namnen på stationerna.

Klicka sedan för att få väderrapporter och prognoser.

För att ändra kartan: Klicka på de gröna knapparna med ett svart kors på för att zooma in; den gröna knappen med ett streck på för att zooma ut; eller på de gröna pilarna för angränsande kartor.


METAR-TAF: